Terminal Aerodrome Forecast
Issued by NWS

Home | Current Version | Previous Version | Text Only | Print | Product List | Glossary On
Versions: 1 2 3 4 5 6 7 8 9 10 11 12 13 14 15 16 17 18
000
FTUS43 KIND 301100
TAFBMG
TAF
KBMG 301120Z 3012/3112 00000KT P6SM SKC
     FM301500 VRB04KT P6SM BKN100
     FM310300 32003KT P6SM VCSH OVC060
      AMD LTD TO CLD VIS AND WIND TIL 301300=

USA.gov is the U.S. government's official web portal to all federal, state and local government web resources and services.